createdAt,value
2018-05-27T00:00:14.760Z,1005.02
2018-05-27T00:01:14.771Z,1005.04
2018-05-27T00:02:14.767Z,1005.02
2018-05-27T00:03:35.777Z,1004.97
2018-05-27T00:04:14.782Z,1004.98
2018-05-27T00:05:14.800Z,1004.95
2018-05-27T00:06:14.794Z,1004.95
2018-05-27T00:07:14.784Z,1004.91
2018-05-27T00:08:14.778Z,1004.92
2018-05-27T00:09:35.792Z,1004.91
2018-05-27T00:10:14.790Z,1004.92
2018-05-27T00:11:14.821Z,1004.90
2018-05-27T00:12:14.789Z,1004.89
2018-05-27T00:13:14.792Z,1004.84
2018-05-27T00:14:14.820Z,1004.89
2018-05-27T00:15:35.809Z,1004.86
2018-05-27T00:16:14.797Z,1004.86
2018-05-27T00:17:14.799Z,1004.86
2018-05-27T00:18:14.804Z,1004.86
2018-05-27T00:19:14.805Z,1004.84
2018-05-27T00:20:14.829Z,1004.89
2018-05-27T00:21:35.824Z,1004.93
2018-05-27T00:22:14.835Z,1004.95
2018-05-27T00:23:14.830Z,1004.95
2018-05-27T00:24:14.824Z,1004.96
2018-05-27T00:25:14.820Z,1004.96
2018-05-27T00:26:14.828Z,1004.92
2018-05-27T00:27:35.840Z,1004.92
2018-05-27T00:28:14.827Z,1004.88
2018-05-27T00:29:14.830Z,1004.85
2018-05-27T00:30:14.834Z,1004.80
2018-05-27T00:31:14.842Z,1004.81
2018-05-27T00:32:14.835Z,1004.77
2018-05-27T00:33:36.197Z,1004.77
2018-05-27T00:34:15.743Z,1004.75
2018-05-27T00:35:14.850Z,1004.72
2018-05-27T00:36:14.868Z,1004.68
2018-05-27T00:37:14.844Z,1004.68
2018-05-27T00:38:14.853Z,1004.65
2018-05-27T00:39:35.862Z,1004.68
2018-05-27T00:40:14.871Z,1004.70
2018-05-27T00:41:14.858Z,1004.69
2018-05-27T00:42:14.858Z,1004.67
2018-05-27T00:43:14.861Z,1004.65
2018-05-27T00:44:14.864Z,1004.61
2018-05-27T00:45:35.873Z,1004.59
2018-05-27T00:46:14.879Z,1004.61
2018-05-27T00:47:14.876Z,1004.59
2018-05-27T00:48:15.166Z,1004.53
2018-05-27T00:49:14.910Z,1004.55
2018-05-27T00:50:14.879Z,1004.55
2018-05-27T00:51:35.959Z,1004.53
2018-05-27T00:52:14.972Z,1004.48
2018-05-27T00:53:15.117Z,1004.49
2018-05-27T00:54:14.930Z,1004.51
2018-05-27T00:55:15.175Z,1004.49
2018-05-27T00:56:14.955Z,1004.47
2018-05-27T00:57:36.009Z,1004.45
2018-05-27T00:58:14.976Z,1004.45
2018-05-27T00:59:15.281Z,1004.45
2018-05-27T01:00:14.894Z,1004.40
2018-05-27T01:01:14.940Z,1004.39
2018-05-27T01:02:14.897Z,1004.42
2018-05-27T01:03:36.980Z,1004.39
2018-05-27T01:04:14.931Z,1004.41
2018-05-27T01:05:14.917Z,1004.41
2018-05-27T01:06:14.913Z,1004.39
2018-05-27T01:07:15.294Z,1004.36
2018-05-27T01:08:14.934Z,1004.40
2018-05-27T01:09:35.925Z,1004.44
2018-05-27T01:10:14.922Z,1004.39
2018-05-27T01:11:14.917Z,1004.34
2018-05-27T01:12:14.922Z,1004.33
2018-05-27T01:13:14.923Z,1004.30
2018-05-27T01:14:14.924Z,1004.30
2018-05-27T01:15:35.936Z,1004.28
2018-05-27T01:16:14.963Z,1004.27
2018-05-27T01:17:14.932Z,1004.29
2018-05-27T01:18:14.956Z,1004.23
2018-05-27T01:19:14.937Z,1004.25
2018-05-27T01:20:14.934Z,1004.25
2018-05-27T01:21:35.948Z,1004.24
2018-05-27T01:22:14.942Z,1004.21
2018-05-27T01:23:14.944Z,1004.17
2018-05-27T01:24:14.941Z,1004.17
2018-05-27T01:25:14.947Z,1004.13
2018-05-27T01:26:14.958Z,1004.13
2018-05-27T01:27:35.968Z,1004.12
2018-05-27T01:28:14.964Z,1004.16
2018-05-27T01:29:14.956Z,1004.14
2018-05-27T01:30:14.957Z,1004.13
2018-05-27T01:31:14.955Z,1004.14
2018-05-27T01:32:14.958Z,1004.15
2018-05-27T01:33:35.971Z,1004.15
2018-05-27T01:34:14.964Z,1004.13
2018-05-27T01:35:14.968Z,1004.14
2018-05-27T01:36:14.968Z,1004.12
2018-05-27T01:37:14.967Z,1004.12
2018-05-27T01:38:14.973Z,1004.12
2018-05-27T01:39:35.980Z,1004.12
2018-05-27T01:40:14.979Z,1004.12
2018-05-27T01:41:14.976Z,1004.14
2018-05-27T01:42:14.976Z,1004.13
2018-05-27T01:43:14.978Z,1004.14
2018-05-27T01:44:14.980Z,1004.13
2018-05-27T01:45:35.994Z,1004.13
2018-05-27T01:46:14.986Z,1004.10
2018-05-27T01:47:14.986Z,1004.12
2018-05-27T01:48:14.988Z,1004.12
2018-05-27T01:49:14.989Z,1004.10
2018-05-27T01:50:14.991Z,1004.08
2018-05-27T01:51:36.003Z,1004.09
2018-05-27T01:52:14.999Z,1004.04
2018-05-27T01:53:15.000Z,1004.00
2018-05-27T01:54:15.158Z,1004.01
2018-05-27T01:55:15.137Z,1003.94
2018-05-27T01:56:15.079Z,1003.96
2018-05-27T01:57:36.047Z,1003.96
2018-05-27T01:58:15.005Z,1003.94
2018-05-27T01:59:15.010Z,1003.91
2018-05-27T02:00:15.012Z,1003.92
2018-05-27T02:01:15.014Z,1003.87
2018-05-27T02:02:15.071Z,1003.88
2018-05-27T02:03:36.242Z,1003.92
2018-05-27T02:04:16.148Z,1003.92
2018-05-27T02:05:15.089Z,1003.91
2018-05-27T02:06:15.021Z,1003.89
2018-05-27T02:07:15.022Z,1003.89
2018-05-27T02:08:15.059Z,1003.89
2018-05-27T02:09:36.038Z,1003.89
2018-05-27T02:10:15.028Z,1003.90
2018-05-27T02:11:15.030Z,1003.93
2018-05-27T02:12:15.034Z,1003.91
2018-05-27T02:13:15.031Z,1003.92
2018-05-27T02:14:15.038Z,1003.87
2018-05-27T02:15:36.062Z,1003.89
2018-05-27T02:16:15.035Z,1003.89
2018-05-27T02:17:15.044Z,1003.88
2018-05-27T02:18:15.041Z,1003.88
2018-05-27T02:19:15.043Z,1003.92
2018-05-27T02:20:15.067Z,1003.87
2018-05-27T02:21:36.052Z,1003.89
2018-05-27T02:22:15.045Z,1003.93
2018-05-27T02:23:15.051Z,1003.90
2018-05-27T02:24:15.051Z,1003.93
2018-05-27T02:25:15.051Z,1003.95
2018-05-27T02:26:15.055Z,1003.93
2018-05-27T02:27:36.077Z,1003.92
2018-05-27T02:28:15.056Z,1003.93
2018-05-27T02:29:15.088Z,1003.98
2018-05-27T02:30:15.060Z,1003.94
2018-05-27T02:31:15.062Z,1003.93
2018-05-27T02:32:15.066Z,1003.93
2018-05-27T02:33:36.077Z,1003.89
2018-05-27T02:34:15.084Z,1003.90
2018-05-27T02:35:15.073Z,1003.89
2018-05-27T02:36:15.070Z,1003.92
2018-05-27T02:37:15.076Z,1003.88
2018-05-27T02:38:15.081Z,1003.93
2018-05-27T02:39:36.084Z,1003.95
2018-05-27T02:40:15.080Z,1004.00
2018-05-27T02:41:15.081Z,1004.03
2018-05-27T02:42:15.081Z,1004.00
2018-05-27T02:43:15.079Z,1003.99
2018-05-27T02:44:15.103Z,1003.97
2018-05-27T02:45:36.094Z,1003.96
2018-05-27T02:46:15.085Z,1003.93
2018-05-27T02:47:15.091Z,1003.95
2018-05-27T02:48:15.090Z,1004.00
2018-05-27T02:49:15.095Z,1003.94
2018-05-27T02:50:15.093Z,1003.92
2018-05-27T02:51:36.106Z,1003.87
2018-05-27T02:52:15.098Z,1003.89
2018-05-27T02:53:15.106Z,1003.86
2018-05-27T02:54:15.100Z,1003.86
2018-05-27T02:55:15.105Z,1003.89
2018-05-27T02:56:15.103Z,1003.89
2018-05-27T02:57:36.112Z,1003.92
2018-05-27T02:58:15.106Z,1003.94
2018-05-27T02:59:15.110Z,1003.93
2018-05-27T03:00:15.117Z,1003.96
2018-05-27T03:01:15.112Z,1004.00
2018-05-27T03:02:15.111Z,1004.01
2018-05-27T03:03:36.121Z,1004.05
2018-05-27T03:04:15.113Z,1004.01
2018-05-27T03:05:15.115Z,1004.01
2018-05-27T03:06:15.116Z,1004.01
2018-05-27T03:07:15.126Z,1003.99
2018-05-27T03:08:15.122Z,1004.00
2018-05-27T03:09:36.132Z,1003.99
2018-05-27T03:10:15.126Z,1003.95
2018-05-27T03:11:15.126Z,1003.95
2018-05-27T03:12:15.139Z,1003.94
2018-05-27T03:13:15.127Z,1003.94
2018-05-27T03:14:15.128Z,1003.89
2018-05-27T03:15:36.141Z,1003.90
2018-05-27T03:16:15.129Z,1003.91
2018-05-27T03:17:15.131Z,1003.96
2018-05-27T03:18:36.144Z,1003.91
2018-05-27T03:19:15.142Z,1003.92
2018-05-27T03:20:36.167Z,1003.92
2018-05-27T03:21:15.141Z,1003.92
2018-05-27T03:22:15.135Z,1003.90
2018-05-27T03:23:15.140Z,1003.90
2018-05-27T03:24:15.142Z,1003.89
2018-05-27T03:25:15.143Z,1003.94
2018-05-27T03:26:36.214Z,1003.92
2018-05-27T03:27:15.166Z,1003.87
2018-05-27T03:28:15.158Z,1003.85
2018-05-27T03:29:15.152Z,1003.85
2018-05-27T03:30:15.156Z,1003.89
2018-05-27T03:31:15.155Z,1003.86
2018-05-27T03:32:36.167Z,1003.85
2018-05-27T03:33:15.153Z,1003.90
2018-05-27T03:34:15.160Z,1003.91
2018-05-27T03:35:15.159Z,1003.89
2018-05-27T03:36:15.161Z,1003.88
2018-05-27T03:37:15.160Z,1003.87
2018-05-27T03:38:36.181Z,1003.87
2018-05-27T03:39:15.167Z,1003.88
2018-05-27T03:40:15.170Z,1003.90
2018-05-27T03:41:15.166Z,1003.87
2018-05-27T03:42:15.166Z,1003.87
2018-05-27T03:43:15.170Z,1003.90
2018-05-27T03:44:36.188Z,1003.89
2018-05-27T03:45:15.176Z,1003.90
2018-05-27T03:46:15.178Z,1003.88
2018-05-27T03:47:15.180Z,1003.90
2018-05-27T03:48:15.179Z,1003.92
2018-05-27T03:49:15.181Z,1003.96
2018-05-27T03:50:36.196Z,1003.96
2018-05-27T03:51:15.185Z,1003.95
2018-05-27T03:52:15.185Z,1003.88
2018-05-27T03:53:15.187Z,1003.92
2018-05-27T03:54:15.188Z,1003.89
2018-05-27T03:55:15.192Z,1003.93
2018-05-27T03:56:36.214Z,1003.89
2018-05-27T03:57:15.191Z,1003.89
2018-05-27T03:58:15.192Z,1003.89
2018-05-27T03:59:15.197Z,1003.89
2018-05-27T04:00:15.195Z,1003.89
2018-05-27T04:01:15.198Z,1003.87
2018-05-27T04:02:36.209Z,1003.85
2018-05-27T04:03:15.204Z,1003.85
2018-05-27T04:04:15.205Z,1003.82
2018-05-27T04:05:15.208Z,1003.80
2018-05-27T04:06:15.207Z,1003.80
2018-05-27T04:07:15.214Z,1003.79
2018-05-27T04:08:36.221Z,1003.78
2018-05-27T04:09:15.212Z,1003.78
2018-05-27T04:10:15.215Z,1003.75
2018-05-27T04:11:15.222Z,1003.73
2018-05-27T04:12:15.218Z,1003.75
2018-05-27T04:13:15.219Z,1003.74
2018-05-27T04:14:36.231Z,1003.72
2018-05-27T04:15:15.222Z,1003.76
2018-05-27T04:16:15.222Z,1003.77
2018-05-27T04:17:15.230Z,1003.77
2018-05-27T04:18:15.225Z,1003.74
2018-05-27T04:19:15.229Z,1003.76
2018-05-27T04:20:36.236Z,1003.76
2018-05-27T04:21:15.231Z,1003.80
2018-05-27T04:22:15.232Z,1003.82
2018-05-27T04:23:15.233Z,1003.82
2018-05-27T04:24:15.238Z,1003.80
2018-05-27T04:25:15.236Z,1003.77
2018-05-27T04:26:36.315Z,1003.80
2018-05-27T04:27:15.242Z,1003.79
2018-05-27T04:28:15.242Z,1003.76
2018-05-27T04:29:15.253Z,1003.73
2018-05-27T04:30:15.247Z,1003.72
2018-05-27T04:31:15.252Z,1003.73
2018-05-27T04:32:36.253Z,1003.72
2018-05-27T04:33:15.248Z,1003.73
2018-05-27T04:34:15.249Z,1003.73
2018-05-27T04:35:15.253Z,1003.74
2018-05-27T04:36:15.262Z,1003.70
2018-05-27T04:37:15.260Z,1003.71
2018-05-27T04:38:36.263Z,1003.71
2018-05-27T04:39:15.260Z,1003.69
2018-05-27T04:40:15.261Z,1003.67
2018-05-27T04:41:15.260Z,1003.68
2018-05-27T04:42:15.261Z,1003.69
2018-05-27T04:43:15.262Z,1003.71
2018-05-27T04:44:36.276Z,1003.69
2018-05-27T04:45:15.265Z,1003.68
2018-05-27T04:46:15.268Z,1003.67
2018-05-27T04:47:15.273Z,1003.67
2018-05-27T04:48:15.268Z,1003.69
2018-05-27T04:49:15.272Z,1003.72
2018-05-27T04:50:36.282Z,1003.73
2018-05-27T04:51:15.278Z,1003.75
2018-05-27T04:52:15.277Z,1003.77
2018-05-27T04:53:15.277Z,1003.80
2018-05-27T04:54:15.283Z,1003.82
2018-05-27T04:55:15.284Z,1003.87
2018-05-27T04:56:36.314Z,1003.94
2018-05-27T04:57:15.294Z,1003.96
2018-05-27T04:58:15.287Z,1003.97
2018-05-27T04:59:15.288Z,1003.99
2018-05-27T05:00:15.291Z,1003.97
2018-05-27T05:01:15.291Z,1003.95
2018-05-27T05:02:36.301Z,1003.92
2018-05-27T05:03:15.297Z,1003.88
2018-05-27T05:04:15.295Z,1003.89
2018-05-27T05:05:15.297Z,1003.89
2018-05-27T05:06:15.301Z,1003.91
2018-05-27T05:07:15.301Z,1003.93
2018-05-27T05:08:36.311Z,1003.96
2018-05-27T05:09:15.308Z,1003.97
2018-05-27T05:10:15.312Z,1003.99
2018-05-27T05:11:15.312Z,1004.02
2018-05-27T05:12:15.310Z,1004.06
2018-05-27T05:13:15.311Z,1004.08
2018-05-27T05:14:36.326Z,1004.10
2018-05-27T05:15:15.316Z,1004.07
2018-05-27T05:16:15.316Z,1004.10
2018-05-27T05:17:15.320Z,1004.11
2018-05-27T05:18:15.322Z,1004.14
2018-05-27T05:19:15.328Z,1004.07
2018-05-27T05:20:36.337Z,1004.11
2018-05-27T05:21:15.330Z,1004.09
2018-05-27T05:22:15.381Z,1004.10
2018-05-27T05:23:15.331Z,1004.13
2018-05-27T05:24:15.350Z,1004.14
2018-05-27T05:25:15.335Z,1004.14
2018-05-27T05:26:36.420Z,1004.15
2018-05-27T05:27:15.340Z,1004.15
2018-05-27T05:28:15.348Z,1004.16
2018-05-27T05:29:15.344Z,1004.17
2018-05-27T05:30:15.348Z,1004.19
2018-05-27T05:31:15.354Z,1004.18
2018-05-27T05:32:36.361Z,1004.19
2018-05-27T05:33:15.352Z,1004.21
2018-05-27T05:34:15.360Z,1004.21
2018-05-27T05:35:15.356Z,1004.20
2018-05-27T05:36:15.392Z,1004.20
2018-05-27T05:37:15.360Z,1004.18
2018-05-27T05:38:36.372Z,1004.20
2018-05-27T05:39:15.365Z,1004.13
2018-05-27T05:40:15.369Z,1004.13
2018-05-27T05:41:15.372Z,1004.12
2018-05-27T05:42:15.374Z,1004.13
2018-05-27T05:43:15.372Z,1004.13
2018-05-27T05:44:36.389Z,1004.13
2018-05-27T05:45:15.379Z,1004.11
2018-05-27T05:46:15.380Z,1004.14
2018-05-27T05:47:15.383Z,1004.14
2018-05-27T05:48:15.387Z,1004.10
2018-05-27T05:49:15.441Z,1004.14
2018-05-27T05:50:36.400Z,1004.13
2018-05-27T05:51:15.398Z,1004.13
2018-05-27T05:52:15.402Z,1004.13
2018-05-27T05:53:15.397Z,1004.11
2018-05-27T05:54:15.407Z,1004.13
2018-05-27T05:55:15.403Z,1004.15
2018-05-27T05:56:36.519Z,1004.16
2018-05-27T05:57:15.408Z,1004.20
2018-05-27T05:58:15.412Z,1004.19
2018-05-27T05:59:15.414Z,1004.20
2018-05-27T06:00:15.419Z,1004.19
2018-05-27T06:01:15.441Z,1004.18
2018-05-27T06:02:36.432Z,1004.23
2018-05-27T06:03:15.427Z,1004.21
2018-05-27T06:04:15.432Z,1004.29
2018-05-27T06:05:15.433Z,1004.26
2018-05-27T06:06:15.459Z,1004.31
2018-05-27T06:07:15.442Z,1004.34
2018-05-27T06:08:36.453Z,1004.35
2018-05-27T06:09:15.447Z,1004.38
2018-05-27T06:10:15.455Z,1004.38
2018-05-27T06:11:15.451Z,1004.37
2018-05-27T06:12:15.458Z,1004.34
2018-05-27T06:13:15.456Z,1004.38
2018-05-27T06:14:36.467Z,1004.40
2018-05-27T06:15:15.462Z,1004.42
2018-05-27T06:16:15.485Z,1004.43
2018-05-27T06:17:15.474Z,1004.37
2018-05-27T06:18:15.477Z,1004.40
2018-05-27T06:19:15.478Z,1004.45
2018-05-27T06:20:36.488Z,1004.45
2018-05-27T06:21:15.483Z,1004.44
2018-05-27T06:22:15.490Z,1004.47
2018-05-27T06:23:15.487Z,1004.49
2018-05-27T06:24:15.487Z,1004.48
2018-05-27T06:25:15.493Z,1004.51
2018-05-27T06:26:36.521Z,1004.55
2018-05-27T06:27:15.508Z,1004.52
2018-05-27T06:28:15.512Z,1004.55
2018-05-27T06:29:15.517Z,1004.55
2018-05-27T06:30:15.509Z,1004.51
2018-05-27T06:31:15.513Z,1004.53
2018-05-27T06:32:36.529Z,1004.52
2018-05-27T06:33:15.516Z,1004.54
2018-05-27T06:34:15.519Z,1004.56
2018-05-27T06:35:15.525Z,1004.55
2018-05-27T06:36:15.568Z,1004.55
2018-05-27T06:37:15.527Z,1004.56
2018-05-27T06:38:36.546Z,1004.54
2018-05-27T06:39:15.534Z,1004.53
2018-05-27T06:40:15.537Z,1004.53
2018-05-27T06:41:15.543Z,1004.49
2018-05-27T06:42:15.545Z,1004.47
2018-05-27T06:43:15.549Z,1004.43
2018-05-27T06:44:36.570Z,1004.44
2018-05-27T06:45:15.553Z,1004.44
2018-05-27T06:46:15.555Z,1004.46
2018-05-27T06:47:15.557Z,1004.44
2018-05-27T06:48:15.558Z,1004.44
2018-05-27T06:49:15.562Z,1004.46
2018-05-27T06:50:36.584Z,1004.46
2018-05-27T06:51:15.573Z,1004.46
2018-05-27T06:52:15.572Z,1004.44
2018-05-27T06:53:15.576Z,1004.44
2018-05-27T06:54:15.575Z,1004.46
2018-05-27T06:55:15.577Z,1004.49
2018-05-27T06:56:36.629Z,1004.53
2018-05-27T06:57:15.588Z,1004.54
2018-05-27T06:58:15.590Z,1004.55
2018-05-27T06:59:15.592Z,1004.56
2018-05-27T07:00:15.598Z,1004.59
2018-05-27T07:01:15.600Z,1004.62
2018-05-27T07:02:36.613Z,1004.63
2018-05-27T07:03:15.601Z,1004.65
2018-05-27T07:04:15.606Z,1004.65
2018-05-27T07:05:15.608Z,1004.70
2018-05-27T07:06:15.610Z,1004.67
2018-05-27T07:07:15.616Z,1004.70
2018-05-27T07:08:36.630Z,1004.75
2018-05-27T07:09:15.622Z,1004.72
2018-05-27T07:10:15.628Z,1004.71
2018-05-27T07:11:15.628Z,1004.73
2018-05-27T07:12:15.628Z,1004.70
2018-05-27T07:13:15.635Z,1004.69
2018-05-27T07:14:36.645Z,1004.70
2018-05-27T07:15:15.636Z,1004.73
2018-05-27T07:16:15.645Z,1004.71
2018-05-27T07:17:15.643Z,1004.74
2018-05-27T07:18:15.647Z,1004.70
2018-05-27T07:19:15.652Z,1004.72
2018-05-27T07:20:36.661Z,1004.69
2018-05-27T07:21:15.657Z,1004.69
2018-05-27T07:22:15.662Z,1004.70
2018-05-27T07:23:15.664Z,1004.69
2018-05-27T07:24:15.667Z,1004.69
2018-05-27T07:25:15.671Z,1004.66
2018-05-27T07:26:36.725Z,1004.63
2018-05-27T07:27:15.677Z,1004.59
2018-05-27T07:28:15.700Z,1004.58
2018-05-27T07:29:15.699Z,1004.59
2018-05-27T07:30:15.686Z,1004.58
2018-05-27T07:31:15.690Z,1004.56
2018-05-27T07:32:36.710Z,1004.56
2018-05-27T07:33:15.697Z,1004.59
2018-05-27T07:34:15.702Z,1004.58
2018-05-27T07:35:15.703Z,1004.55
2018-05-27T07:36:15.707Z,1004.56
2018-05-27T07:37:15.713Z,1004.57
2018-05-27T07:38:36.725Z,1004.56
2018-05-27T07:39:15.719Z,1004.57
2018-05-27T07:40:15.725Z,1004.54
2018-05-27T07:41:15.727Z,1004.54
2018-05-27T07:42:15.732Z,1004.57
2018-05-27T07:43:15.737Z,1004.50
2018-05-27T07:44:36.746Z,1004.55
2018-05-27T07:45:15.742Z,1004.56
2018-05-27T07:46:15.743Z,1004.58
2018-05-27T07:47:15.748Z,1004.51
2018-05-27T07:48:15.751Z,1004.53
2018-05-27T07:49:15.754Z,1004.53
2018-05-27T07:50:36.770Z,1004.51
2018-05-27T07:51:15.764Z,1004.51
2018-05-27T07:52:15.765Z,1004.49
2018-05-27T07:53:15.769Z,1004.50
2018-05-27T07:54:15.772Z,1004.49
2018-05-27T07:55:15.774Z,1004.47
2018-05-27T07:56:36.824Z,1004.45
2018-05-27T07:57:15.785Z,1004.44
2018-05-27T07:58:15.856Z,1004.40
2018-05-27T07:59:15.791Z,1004.42
2018-05-27T08:00:15.794Z,1004.40
2018-05-27T08:01:15.803Z,1004.43
2018-05-27T08:02:36.811Z,1004.42
2018-05-27T08:03:15.828Z,1004.42
2018-05-27T08:04:15.811Z,1004.49
2018-05-27T08:05:15.815Z,1004.47
2018-05-27T08:06:15.824Z,1004.47
2018-05-27T08:07:15.822Z,1004.45
2018-05-27T08:08:36.836Z,1004.49
2018-05-27T08:09:15.836Z,1004.46
2018-05-27T08:10:15.836Z,1004.47
2018-05-27T08:11:15.840Z,1004.46
2018-05-27T08:12:15.840Z,1004.43
2018-05-27T08:13:15.845Z,1004.46
2018-05-27T08:14:36.860Z,1004.42
2018-05-27T08:15:15.856Z,1004.44
2018-05-27T08:16:15.858Z,1004.47
2018-05-27T08:17:15.861Z,1004.45
2018-05-27T08:18:15.866Z,1004.47
2018-05-27T08:19:15.881Z,1004.46
2018-05-27T08:20:36.885Z,1004.44
2018-05-27T08:21:15.884Z,1004.44
2018-05-27T08:22:15.885Z,1004.39
2018-05-27T08:23:15.887Z,1004.41
2018-05-27T08:24:15.890Z,1004.40
2018-05-27T08:25:15.897Z,1004.39
2018-05-27T08:26:36.926Z,1004.38
2018-05-27T08:27:15.904Z,1004.40
2018-05-27T08:28:15.907Z,1004.39
2018-05-27T08:29:15.912Z,1004.36
2018-05-27T08:30:15.917Z,1004.37
2018-05-27T08:31:15.928Z,1004.33
2018-05-27T08:32:36.932Z,1004.37
2018-05-27T08:33:15.929Z,1004.36
2018-05-27T08:34:15.933Z,1004.33
2018-05-27T08:35:15.938Z,1004.37
2018-05-27T08:36:15.945Z,1004.34
2018-05-27T08:37:15.971Z,1004.38
2018-05-27T08:38:36.961Z,1004.37
2018-05-27T08:39:15.963Z,1004.38
2018-05-27T08:40:15.965Z,1004.40
2018-05-27T08:41:15.965Z,1004.39
2018-05-27T08:42:15.973Z,1004.43
2018-05-27T08:43:15.983Z,1004.41
2018-05-27T08:44:36.990Z,1004.43
2018-05-27T08:45:15.989Z,1004.41
2018-05-27T08:46:15.992Z,1004.42
2018-05-27T08:47:16.002Z,1004.41
2018-05-27T08:48:16.005Z,1004.41
2018-05-27T08:49:16.016Z,1004.43
2018-05-27T08:50:37.033Z,1004.42
2018-05-27T08:51:16.024Z,1004.44
2018-05-27T08:52:16.033Z,1004.43
2018-05-27T08:53:16.043Z,1004.45
2018-05-27T08:54:16.053Z,1004.44
2018-05-27T08:55:16.055Z,1004.44
2018-05-27T08:56:37.130Z,1004.45
2018-05-27T08:57:16.120Z,1004.39
2018-05-27T08:58:16.074Z,1004.41
2018-05-27T08:59:16.082Z,1004.41
2018-05-27T09:00:16.086Z,1004.42
2018-05-27T09:01:16.155Z,1004.44
2018-05-27T09:02:37.108Z,1004.37
2018-05-27T09:03:16.107Z,1004.40
2018-05-27T09:04:16.115Z,1004.39
2018-05-27T09:05:16.131Z,1004.43
2018-05-27T09:06:16.131Z,1004.40
2018-05-27T09:07:16.136Z,1004.42
2018-05-27T09:08:37.154Z,1004.43
2018-05-27T09:09:16.163Z,1004.44
2018-05-27T09:10:16.159Z,1004.40
2018-05-27T09:11:16.166Z,1004.39
2018-05-27T09:12:16.175Z,1004.39
2018-05-27T09:13:16.186Z,1004.38
2018-05-27T09:14:37.221Z,1004.35
2018-05-27T09:15:16.248Z,1004.33
2018-05-27T09:16:16.216Z,1004.31
2018-05-27T09:17:16.216Z,1004.35
2018-05-27T09:18:16.230Z,1004.30
2018-05-27T09:19:16.235Z,1004.33
2018-05-27T09:20:37.253Z,1004.34
2018-05-27T09:21:16.253Z,1004.35
2018-05-27T09:22:16.261Z,1004.35
2018-05-27T09:23:16.272Z,1004.35
2018-05-27T09:24:16.278Z,1004.38
2018-05-27T09:25:16.292Z,1004.36
2018-05-27T09:26:37.333Z,1004.35
2018-05-27T09:27:16.308Z,1004.36
2018-05-27T09:28:16.334Z,1004.37
2018-05-27T09:29:16.326Z,1004.36
2018-05-27T09:30:16.338Z,1004.39
2018-05-27T09:31:16.351Z,1004.43
2018-05-27T09:32:37.368Z,1004.34
2018-05-27T09:33:16.367Z,1004.29
2018-05-27T09:34:16.380Z,1004.33
2018-05-27T09:35:16.389Z,1004.34
2018-05-27T09:36:16.398Z,1004.37
2018-05-27T09:37:16.412Z,1004.32
2018-05-27T09:38:37.432Z,1004.32
2018-05-27T09:39:16.498Z,1004.30
2018-05-27T09:40:16.437Z,1004.31
2018-05-27T09:41:16.446Z,1004.27
2018-05-27T09:42:16.468Z,1004.34
2018-05-27T09:43:16.469Z,1004.32
2018-05-27T09:44:37.504Z,1004.25
2018-05-27T09:45:16.531Z,1004.31
2018-05-27T09:46:16.511Z,1004.31
2018-05-27T09:47:16.520Z,1004.27
2018-05-27T09:48:16.548Z,1004.27
2018-05-27T09:49:16.538Z,1004.23
2018-05-27T09:50:37.563Z,1004.24
2018-05-27T09:51:16.562Z,1004.19
2018-05-27T09:52:16.571Z,1004.20
2018-05-27T09:53:16.579Z,1004.14
2018-05-27T09:54:16.591Z,1004.16
2018-05-27T09:55:16.600Z,1004.18
2018-05-27T09:56:37.642Z,1004.18
2018-05-27T09:57:16.624Z,1004.15
2018-05-27T09:58:16.640Z,1004.16
2018-05-27T09:59:16.642Z,1004.15
2018-05-27T10:00:16.652Z,1004.15
2018-05-27T10:01:16.668Z,1004.10
2018-05-27T10:02:37.686Z,1004.12
2018-05-27T10:03:16.698Z,1004.11
2018-05-27T10:04:16.695Z,1004.09
2018-05-27T10:05:16.730Z,1004.10
2018-05-27T10:06:16.716Z,1004.07
2018-05-27T10:07:16.726Z,1004.11
2018-05-27T10:08:37.748Z,1004.09
2018-05-27T10:09:16.749Z,1004.11
2018-05-27T10:10:16.759Z,1004.11
2018-05-27T10:11:16.772Z,1004.11
2018-05-27T10:12:16.778Z,1004.13
2018-05-27T10:13:16.865Z,1004.11
2018-05-27T10:14:37.814Z,1004.08
2018-05-27T10:15:16.813Z,1004.06
2018-05-27T10:16:16.825Z,1004.01
2018-05-27T10:17:16.837Z,1004.04
2018-05-27T10:18:16.844Z,1004.02
2018-05-27T10:19:16.860Z,1004.02
2018-05-27T10:20:37.885Z,1003.99
2018-05-27T10:21:16.878Z,1004.00
2018-05-27T10:22:16.890Z,1003.92
2018-05-27T10:23:16.904Z,1003.96
2018-05-27T10:24:16.920Z,1003.98
2018-05-27T10:25:16.932Z,1003.97
2018-05-27T10:26:38.048Z,1003.97
2018-05-27T10:27:16.957Z,1003.93
2018-05-27T10:28:16.968Z,1003.94
2018-05-27T10:29:16.979Z,1003.90
2018-05-27T10:30:16.994Z,1003.92
2018-05-27T10:31:17.013Z,1003.89
2018-05-27T10:32:38.035Z,1003.89
2018-05-27T10:33:17.032Z,1003.87
2018-05-27T10:34:17.053Z,1003.85
2018-05-27T10:35:17.063Z,1003.82
2018-05-27T10:36:17.095Z,1003.80
2018-05-27T10:37:17.091Z,1003.76
2018-05-27T10:38:38.120Z,1003.75
2018-05-27T10:39:17.174Z,1003.84
2018-05-27T10:40:17.126Z,1003.86
2018-05-27T10:41:17.141Z,1003.86
2018-05-27T10:42:17.171Z,1003.86
2018-05-27T10:43:17.186Z,1003.83
2018-05-27T10:44:38.205Z,1003.82
2018-05-27T10:45:17.216Z,1003.79
2018-05-27T10:46:17.207Z,1003.84
2018-05-27T10:47:17.220Z,1003.80
2018-05-27T10:48:17.238Z,1003.78
2018-05-27T10:49:17.261Z,1003.73
2018-05-27T10:50:38.279Z,1003.79
2018-05-27T10:51:17.291Z,1003.77
2018-05-27T10:52:17.290Z,1003.71
2018-05-27T10:53:17.323Z,1003.71
2018-05-27T10:54:17.315Z,1003.68
2018-05-27T10:55:17.379Z,1003.61
2018-05-27T10:56:38.460Z,1003.63
2018-05-27T10:57:17.368Z,1003.67
2018-05-27T10:58:17.381Z,1003.64
2018-05-27T10:59:17.384Z,1003.61
2018-05-27T11:00:17.393Z,1003.57
2018-05-27T11:01:17.404Z,1003.66
2018-05-27T11:02:38.427Z,1003.60
2018-05-27T11:03:17.437Z,1003.60
2018-05-27T11:04:17.437Z,1003.63
2018-05-27T11:05:17.455Z,1003.58
2018-05-27T11:06:17.466Z,1003.55
2018-05-27T11:07:17.484Z,1003.54
2018-05-27T11:08:38.494Z,1003.55
2018-05-27T11:09:17.496Z,1003.56
2018-05-27T11:10:17.507Z,1003.55
2018-05-27T11:11:17.529Z,1003.53
2018-05-27T11:12:17.534Z,1003.53
2018-05-27T11:13:17.535Z,1003.52
2018-05-27T11:14:38.554Z,1003.50
2018-05-27T11:15:17.557Z,1003.51
2018-05-27T11:16:17.561Z,1003.53
2018-05-27T11:17:17.579Z,1003.48
2018-05-27T11:18:17.588Z,1003.50
2018-05-27T11:19:17.589Z,1003.51
2018-05-27T11:20:38.659Z,1003.50
2018-05-27T11:21:17.608Z,1003.48
2018-05-27T11:22:17.623Z,1003.50
2018-05-27T11:23:17.623Z,1003.46
2018-05-27T11:24:17.643Z,1003.47
2018-05-27T11:25:17.645Z,1003.49
2018-05-27T11:26:38.767Z,1003.47
2018-05-27T11:27:17.667Z,1003.40
2018-05-27T11:28:17.673Z,1003.43
2018-05-27T11:29:17.680Z,1003.43
2018-05-27T11:30:17.688Z,1003.48
2018-05-27T11:31:17.696Z,1003.47
2018-05-27T11:32:38.718Z,1003.46
2018-05-27T11:33:17.709Z,1003.41
2018-05-27T11:34:17.764Z,1003.40
2018-05-27T11:35:17.723Z,1003.41
2018-05-27T11:36:17.729Z,1003.42
2018-05-27T11:37:17.750Z,1003.39
2018-05-27T11:38:38.757Z,1003.36
2018-05-27T11:39:17.756Z,1003.38
2018-05-27T11:40:17.776Z,1003.34
2018-05-27T11:41:17.771Z,1003.33
2018-05-27T11:42:17.792Z,1003.28
2018-05-27T11:43:17.788Z,1003.33
2018-05-27T11:44:38.800Z,1003.32
2018-05-27T11:45:17.801Z,1003.33
2018-05-27T11:46:17.803Z,1003.35
2018-05-27T11:47:17.814Z,1003.32
2018-05-27T11:48:17.822Z,1003.33
2018-05-27T11:49:17.835Z,1003.33
2018-05-27T11:50:38.846Z,1003.31
2018-05-27T11:51:17.851Z,1003.36
2018-05-27T11:52:17.849Z,1003.29
2018-05-27T11:53:17.870Z,1003.30
2018-05-27T11:54:17.917Z,1003.32
2018-05-27T11:55:17.872Z,1003.31
2018-05-27T11:56:38.973Z,1003.30
2018-05-27T11:57:17.889Z,1003.26
2018-05-27T11:58:17.891Z,1003.23
2018-05-27T11:59:17.897Z,1003.22
2018-05-27T12:00:17.916Z,1003.21
2018-05-27T12:01:17.908Z,1003.15
2018-05-27T12:02:38.926Z,1003.12
2018-05-27T12:03:17.922Z,1003.07
2018-05-27T12:04:17.926Z,1003.07
2018-05-27T12:05:17.933Z,1003.04